Hlavní strana
METAR-TAF:

METAR-TAF

Letiště :

Vardø, Norsko

zeměpisná šířka: 70-21N, zeměpisná délka: 031-03E, výška: 12 m

Aktuální stav počasí

Zpráva byla vytvořena před 1 hodinou a 31 minutami, v 12:50 UTC
Jihozápadní vítr 13 kt
Teplota 6°C
Vlhkost vzduchu 93%
Tlak 991 hPa
Viditelnost 10 km a více
Polojasno ve výšce 1000 ft
Oblačno až skoro zataženo ve výšce 1500 ft

METAR: ENSS 181250Z 23013KT 9999 SCT010 BKN015 06/05 Q0991 RMK WIND 500FT 22020KT

Čas: 16:21 (14:21 UTC)


TAF: chybějící

Stav a předpovědi počasí z více než 4 000 letišť (zprávy METAR a TAF).

Červené a žluté tečky na mapě představují dostupné meteorologické stanice.

Když kurzor umístíte na tečku, zobrazí se název stanice.

Pak kliknutím zobrazíte stav a předpověď počasí.

Chcete-li změnit mapu, kliknutím na zelené tlačítko se znaménkem +mapu přiblížíte, kliknutím na zelené tlačítko se znaménkem – mapu oddálíte a kliknutím na zelené šipky přejdete na sousední mapy.


METAR-TAF: